• Join FlightAware (Why Join?)
  • Login
  • US Flag 
08:50AM EDT


 

Airport Tracker/Info


-or-


 

Live Flight TrackerFlight Track Log ✈ UAL165 ✈ 16-Apr-2013 ✈ PGUM - RJFF / FUK

Flight Track Log - Related Links

Times and Time Zones

All times are in EDT time to prevent confusion due to time zone crossing. See the UAL165 flight status page for this flight to view local times or setup timezone preferences in your user account.

Time Position Orientation Groundspeed Altitude Reporting Facility
EDT Latitude Longitude Course Direction KTS MPH feet Rate Location/Type
05:39PM 13.4833 144.8000 283° West 150 173 1,400  Level Guam Center
05:40PM 13.5333 144.7833 342° North 210 242 3,600 2,280 Climbing Guam Center
05:41PM 13.5833 144.7333 316° Northwest 260 299 6,000 2,640 Climbing Guam Center
05:42PM 13.7679 144.6246 320° Northwest  Level Estimated
05:42PM 13.6500 144.6833 324° Northwest 290 334 8,900  Level Guam Center
05:43PM 13.8625 144.5670 316° Northwest  Level Estimated
05:43PM 13.7167 144.6167 316° Northwest 360 414 10,700  Level Guam Center
05:44PM 13.8873 144.4566 283° West  Level FlightAware Approximate
05:44PM 13.8000 144.5333 316° Northwest 390 449 13,400  Level Guam Center
05:45PM 13.8667 144.4667 316° Northwest 400 460 16,000 2,580 Climbing Guam Center
05:46PM 13.9500 144.3833 316° Northwest 410 472 18,600 2,460 Climbing Guam Center
05:47PM 14.0500 144.3000 321° Northwest 420 483 20,900 2,460 Climbing Guam Center
05:48PM 14.1333 144.2333 322° Northwest 430 495 23,600 2,400 Climbing Guam Center
05:49PM 14.2167 144.1500 316° Northwest 440 506 25,800 1,560 Climbing Guam Center
05:50PM 14.3167 144.0500 316° Northwest 460 529 26,800 1,560 Climbing Guam Center
05:51PM 14.4000 143.9667 316° Northwest 470 541 29,000 2,100 Climbing Guam Center
05:52PM 14.5000 143.8833 321° Northwest 470 541 31,100 1,800 Climbing Guam Center
05:53PM 14.6000 143.7833 316° Northwest 450 518 32,600 1,500 Climbing Guam Center
05:54PM 14.7000 143.7000 321° Northwest 460 529 34,200 1,440 Climbing Guam Center
05:55PM 14.7833 143.6167 316° Northwest 460 529 35,600 1,740 Climbing Guam Center
05:56PM 14.8833 143.5333 321° Northwest 450 518 37,700 1,800 Climbing Guam Center
05:57PM 14.9667 143.4333 311° West 440 506 39,200 1,140 Climbing Guam Center
05:58PM 15.0667 143.3500 321° Northwest 440 506 40,000 360 Climbing Guam Center
05:59PM 15.1500 143.2667 316° Northwest 440 506 40,000  Level Guam Center
06:00PM 15.2333 143.1833 316° Northwest 440 506 40,000  Level Guam Center
06:01PM 15.3333 143.1000 321° Northwest 440 506 40,000  Level Guam Center
06:02PM 15.4167 143.0167 316° Northwest 440 506 40,000  Level Guam Center
06:03PM 15.5167 142.9333 321° Northwest 430 495 40,000  Level Guam Center
06:04PM 15.6000 142.8500 316° Northwest 440 506 40,000  Level Guam Center
06:05PM 15.6833 142.7667 316° Northwest 440 506 40,000  Level Guam Center
06:08PM 15.7938 142.6654 319° Northwest  Level FlightAware Approximate
06:15PM 16.3802 142.1251 319° Northwest  Level FlightAware Approximate
06:16PM 16.4639 142.0477 318° Northwest  Level FlightAware Approximate
06:17PM 16.5471 141.9696 316° Northwest  Level FlightAware Approximate
06:18PM 16.6279 141.8888 316° Northwest  Level FlightAware Approximate
06:18PM 16.5833 141.9500 319° Northwest 415 478 40,000  Level Oakland Oceanic (ODAPS)
06:19PM 16.7123 141.8122 319° Northwest  Level FlightAware Approximate
06:20PM 16.7971 141.7359 319° Northwest  Level FlightAware Approximate
06:21PM 16.8817 141.6595 319° Northwest  Level FlightAware Approximate
06:22PM 16.9664 141.5830 319° Northwest  Level FlightAware Approximate
06:23PM 17.0510 141.5065 319° Northwest  Level FlightAware Approximate
06:24PM 17.3691 141.2359 319° Northwest 415 478 40,000  Level FlightAware Transoceanic
06:25PM 17.4563 141.1562 319° Northwest 415 478 40,000  Level FlightAware Transoceanic
06:26PM 17.5434 141.0764 319° Northwest 415 478 40,000  Level FlightAware Transoceanic
06:27PM 17.6305 140.9965 319° Northwest 415 478 40,000  Level FlightAware Transoceanic
06:28PM 17.7176 140.9165 319° Northwest 415 478 40,000  Level FlightAware Transoceanic
06:29PM 17.8046 140.8365 319° Northwest 415 478 40,000  Level FlightAware Transoceanic
06:30PM 17.8916 140.7564 319° Northwest 415 478 40,000  Level FlightAware Transoceanic
06:31PM 17.9786 140.6762 319° Northwest 415 478 40,000  Level FlightAware Transoceanic
06:32PM 18.0655 140.5960 319° Northwest 415 478 40,000  Level FlightAware Transoceanic
06:33PM 18.1524 140.5156 319° Northwest 415 478 40,000  Level FlightAware Transoceanic
06:34PM 18.2393 140.4352 319° Northwest 415 478 40,000  Level FlightAware Transoceanic
06:35PM 18.3261 140.3547 319° Northwest 415 478 40,000  Level FlightAware Transoceanic
06:36PM 18.4129 140.2741 319° Northwest 415 478 40,000  Level FlightAware Transoceanic
06:37PM 18.4996 140.1934 319° Northwest 415 478 40,000  Level FlightAware Transoceanic
06:38PM 18.5864 140.1127 319° Northwest 415 478 40,000  Level FlightAware Transoceanic
06:39PM 18.6731 140.0319 319° Northwest 415 478 40,000  Level FlightAware Transoceanic
06:40PM 18.7597 139.9509 319° Northwest 415 478 40,000  Level FlightAware Transoceanic
06:41PM 18.8463 139.8699 318° Northwest 415 478 40,000  Level FlightAware Transoceanic
06:42PM 18.9329 139.7889 318° Northwest 415 478 40,000  Level FlightAware Transoceanic
06:43PM 19.0195 139.7077 318° Northwest 415 478 40,000  Level FlightAware Transoceanic
06:44PM 19.1060 139.6265 318° Northwest 415 478 40,000  Level FlightAware Transoceanic
06:45PM 19.1925 139.5451 318° Northwest 415 478 40,000  Level FlightAware Transoceanic
06:46PM 19.2789 139.4637 318° Northwest 415 478 40,000  Level FlightAware Transoceanic
06:47PM 19.3653 139.3822 318° Northwest 415 478 40,000  Level FlightAware Transoceanic
06:48PM 19.4517 139.3006 318° Northwest 415 478 40,000  Level FlightAware Transoceanic
06:49PM 19.5381 139.2189 318° Northwest 415 478 40,000  Level FlightAware Transoceanic
06:50PM 19.6244 139.1372 318° Northwest 415 478 40,000  Level FlightAware Transoceanic
06:51PM 19.7106 139.0553 318° Northwest 415 478 40,000  Level FlightAware Transoceanic
06:52PM 19.7969 138.9734 318° Northwest 415 478 40,000  Level FlightAware Transoceanic
06:53PM 19.8830 138.8914 318° Northwest 415 478 40,000  Level FlightAware Transoceanic
06:54PM 19.9692 138.8092 318° Northwest 415 478 40,000  Level FlightAware Transoceanic
06:55PM 20.0553 138.7270 318° Northwest 415 478 40,000  Level FlightAware Transoceanic
06:56PM 20.1414 138.6447 318° Northwest 415 478 40,000  Level FlightAware Transoceanic
06:57PM 20.2274 138.5623 318° Northwest 415 478 40,000  Level FlightAware Transoceanic
06:58PM 20.3134 138.4799 318° Northwest 415 478 40,000  Level FlightAware Transoceanic
06:59PM 20.3994 138.3973 318° Northwest 415 478 40,000  Level FlightAware Transoceanic
07:00PM 20.4853 138.3146 318° Northwest 415 478 40,000  Level FlightAware Transoceanic
07:01PM 20.5712 138.2319 318° Northwest 415 478 40,000  Level FlightAware Transoceanic
07:02PM 20.6570 138.1490 318° Northwest 415 478 40,000  Level FlightAware Transoceanic
07:03PM 20.7428 138.0661 318° Northwest 415 478 40,000  Level FlightAware Transoceanic
07:04PM 20.8286 137.9830 318° Northwest 415 478 40,000  Level FlightAware Transoceanic
07:05PM 20.9143 137.8999 318° Northwest 415 478 40,000  Level FlightAware Transoceanic
07:06PM 21.0000 137.8167 330° Northwest 415 478 40,000  Level FlightAware Transoceanic
07:07PM 21.0963 137.7583 330° Northwest 415 478 40,000  Level FlightAware Transoceanic
07:08PM 21.1925 137.6998 330° Northwest 415 478 40,000  Level FlightAware Transoceanic
07:09PM 21.2887 137.6413 330° Northwest 415 478 40,000  Level FlightAware Transoceanic
07:10PM 21.3849 137.5827 330° Northwest 415 478 40,000  Level FlightAware Transoceanic
07:11PM 21.4811 137.5240 330° Northwest 415 478 40,000  Level FlightAware Transoceanic
07:12PM 21.5772 137.4653 330° Northwest 415 478 40,000  Level FlightAware Transoceanic
07:13PM 21.6733 137.4064 330° Northwest 415 478 40,000  Level FlightAware Transoceanic
07:14PM 21.7694 137.3475 330° Northwest 415 478 40,000  Level FlightAware Transoceanic
07:15PM 21.8655 137.2885 330° Northwest 415 478 40,000  Level FlightAware Transoceanic
07:16PM 21.9616 137.2294 330° Northwest 415 478 40,000  Level FlightAware Transoceanic
07:17PM 22.0576 137.1703 330° Northwest 415 478 40,000  Level FlightAware Transoceanic
07:18PM 22.1537 137.1111 330° Northwest 415 478 40,000  Level FlightAware Transoceanic
07:19PM 22.2497 137.0517 330° Northwest 415 478 40,000  Level FlightAware Transoceanic
07:20PM 22.3456 136.9923 330° Northwest 415 478 40,000  Level FlightAware Transoceanic
07:21PM 22.4416 136.9329 330° Northwest 415 478 40,000  Level FlightAware Transoceanic
07:22PM 22.5375 136.8733 330° Northwest 415 478 40,000  Level FlightAware Transoceanic
07:23PM 22.6334 136.8137 330° Northwest 415 478 40,000  Level FlightAware Transoceanic
07:24PM 22.7293 136.7539 330° Northwest 415 478 40,000  Level FlightAware Transoceanic
07:25PM 22.8252 136.6941 330° Northwest 415 478 40,000  Level FlightAware Transoceanic
07:26PM 22.9211 136.6342 330° Northwest 415 478 40,000  Level FlightAware Transoceanic
07:27PM 23.0169 136.5742 330° Northwest 415 478 40,000  Level FlightAware Transoceanic
07:28PM 23.1127 136.5142 330° Northwest 415 478 40,000  Level FlightAware Transoceanic
07:29PM 23.2085 136.4540 330° Northwest 415 478 40,000  Level FlightAware Transoceanic
07:30PM 23.3042 136.3938 330° Northwest 415 478 40,000  Level FlightAware Transoceanic
07:31PM 23.4000 136.3335 330° Northwest 415 478 40,000  Level FlightAware Transoceanic
07:32PM 23.4957 136.2731 330° Northwest 415 478 40,000  Level FlightAware Transoceanic
07:33PM 23.5914 136.2126 330° Northwest 415 478 40,000  Level FlightAware Transoceanic
07:34PM 23.6870 136.1520 330° Northwest 415 478 40,000  Level FlightAware Transoceanic
07:35PM 23.7827 136.0913 330° Northwest 415 478 40,000  Level FlightAware Transoceanic
07:36PM 23.8783 136.0305 330° Northwest 415 478 40,000  Level FlightAware Transoceanic
07:37PM 23.9739 135.9697 330° Northwest 415 478 40,000  Level FlightAware Transoceanic
07:38PM 24.0695 135.9087 330° Northwest 415 478 40,000  Level FlightAware Transoceanic
07:39PM 24.1650 135.8477 330° Northwest 415 478 40,000  Level FlightAware Transoceanic
07:40PM 24.2605 135.7866 330° Northwest 415 478 40,000  Level FlightAware Transoceanic
07:41PM 24.3560 135.7253 330° Northwest 415 478 40,000  Level FlightAware Transoceanic
07:42PM 24.4515 135.6640 330° Northwest 415 478 40,000  Level FlightAware Transoceanic
07:43PM 24.5469 135.6026 330° Northwest 415 478 40,000  Level FlightAware Transoceanic
07:44PM 24.6423 135.5411 330° Northwest 415 478 40,000  Level FlightAware Transoceanic
07:45PM 24.7377 135.4795 330° Northwest 415 478 40,000  Level FlightAware Transoceanic
07:46PM 24.8331 135.4178 330° Northwest 415 478 40,000  Level FlightAware Transoceanic
07:47PM 24.9285 135.3561 330° Northwest 415 478 40,000  Level FlightAware Transoceanic
07:48PM 25.0238 135.2942 330° Northwest 415 478 40,000  Level FlightAware Transoceanic
07:49PM 25.1191 135.2322 329° Northwest 415 478 40,000  Level FlightAware Transoceanic
07:50PM 25.2143 135.1701 329° Northwest 415 478 40,000  Level FlightAware Transoceanic
07:51PM 25.3096 135.1080 329° Northwest 415 478 40,000  Level FlightAware Transoceanic
07:52PM 25.4048 135.0457 329° Northwest 415 478 40,000 -60 Level FlightAware Transoceanic
07:53PM 25.4945 134.9744 324° Northwest  Level FlightAware Approximate
07:54PM 25.4954 134.9755 329° Northwest  Level FlightAware Approximate
07:55PM 25.5904 134.9132 329° Northwest  Level FlightAware Approximate
07:56PM 25.6855 134.8508 329° Northwest  Level FlightAware Approximate
07:57PM 25.7805 134.7883 329° Northwest  Level FlightAware Approximate
07:58PM 25.8754 134.7258 329° Northwest  Level FlightAware Approximate
07:59PM 25.9704 134.6631 329° Northwest  Level FlightAware Approximate
08:00PM 26.0653 134.6003 329° Northwest  Level FlightAware Approximate
08:01PM 26.1602 134.5375 329° Northwest  Level FlightAware Approximate
08:02PM 26.2549 134.4741 329° Northwest  Level FlightAware Approximate
08:03PM 26.3493 134.4102 329° Northwest  Level FlightAware Approximate
08:04PM 26.4436 134.3461 329° Northwest  Level FlightAware Approximate
08:05PM 26.5379 134.2819 329° Northwest  Level FlightAware Approximate
08:06PM 26.6322 134.2176 329° Northwest  Level FlightAware Approximate
08:07PM 26.7264 134.1533 329° Northwest  Level FlightAware Approximate
08:08PM 26.8207 134.0888 329° Northwest  Level FlightAware Approximate
08:09PM 26.9149 134.0242 329° Northwest  Level FlightAware Approximate
08:10PM 27.0090 133.9595 329° Northwest  Level FlightAware Approximate
08:11PM 27.1031 133.8947 328° Northwest  Level FlightAware Approximate
08:12PM 27.1972 133.8297 328° Northwest  Level FlightAware Approximate
08:13PM 27.2913 133.7647 328° Northwest  Level FlightAware Approximate
08:14PM 27.3853 133.6996 328° Northwest  Level FlightAware Approximate
08:15PM 27.4794 133.6343 328° Northwest  Level FlightAware Approximate
08:16PM 27.5733 133.5690 328° Northwest  Level FlightAware Approximate
08:17PM 27.6673 133.5035 328° Northwest  Level FlightAware Approximate
08:18PM 27.7612 133.4379 328° Northwest  Level FlightAware Approximate
08:19PM 27.8551 133.3722 328° Northwest  Level FlightAware Approximate
08:20PM 27.9490 133.3064 328° Northwest  Level FlightAware Approximate
08:21PM 28.0428 133.2404 328° Northwest  Level FlightAware Approximate
08:22PM 28.1366 133.1744 328° Northwest  Level FlightAware Approximate
08:23PM 28.2304 133.1082 328° Northwest  Level FlightAware Approximate
08:24PM 28.3241 133.0420 328° Northwest  Level FlightAware Approximate
08:25PM 28.4179 132.9756 328° Northwest  Level FlightAware Approximate
08:26PM 28.5116 132.9093 328° Northwest  Level FlightAware Approximate
08:27PM 28.6054 132.8428 328° Northwest  Level FlightAware Approximate
08:28PM 28.6991 132.7763 328° Northwest  Level FlightAware Approximate
08:29PM 28.7927 132.7096 328° Northwest  Level FlightAware Approximate
08:30PM 28.8864 132.6428 328° Northwest  Level FlightAware Approximate
08:31PM 28.9800 132.5758 328° Northwest  Level FlightAware Approximate
08:32PM 29.0735 132.5088 328° Northwest  Level FlightAware Approximate
08:33PM 29.1671 132.4416 328° Northwest  Level FlightAware Approximate
08:34PM 29.2606 132.3743 328° Northwest  Level FlightAware Approximate
08:35PM 29.3540 132.3069 328° Northwest  Level FlightAware Approximate
08:36PM 29.4475 132.2393 328° Northwest  Level FlightAware Approximate
08:37PM 29.5409 132.1717 328° Northwest  Level FlightAware Approximate
08:38PM 29.6342 132.1037 327° Northwest  Level FlightAware Approximate
08:39PM 29.7271 132.0351 327° Northwest  Level FlightAware Approximate
08:40PM 29.8200 131.9663 327° Northwest  Level FlightAware Approximate
08:41PM 29.9129 131.8974 327° Northwest  Level FlightAware Approximate
08:42PM 30.0057 131.8284 327° Northwest  Level FlightAware Approximate
08:43PM 30.0985 131.7592 327° Northwest  Level FlightAware Approximate
08:44PM 30.1912 131.6899 327° Northwest  Level FlightAware Approximate
08:45PM 30.2842 131.6210 327° Northwest  Level FlightAware Approximate
08:46PM 30.3772 131.5521 327° Northwest  Level FlightAware Approximate
08:47PM 30.4702 131.4830 327° Northwest  Level FlightAware Approximate
08:48PM 30.5632 131.4138 327° Northwest  Level FlightAware Approximate
08:49PM 30.6560 131.3444 327° Northwest  Level FlightAware Approximate
08:50PM 30.7489 131.2750 327° Northwest  Level FlightAware Approximate
08:51PM 30.8417 131.2054 327° Northwest  Level FlightAware Approximate
08:52PM 30.9337 131.1362 327° Northwest  Level FlightAware Approximate
08:53PM 31.0257 131.0669 327° Northwest  Level FlightAware Approximate
08:54PM 31.1176 130.9975 327° Northwest  Level FlightAware Approximate
08:55PM 31.2095 130.9280 327° Northwest  Level FlightAware Approximate
08:56PM 31.3013 130.8583 327° Northwest  Level FlightAware Approximate
08:57PM 31.3931 130.7885 327° Northwest  Level FlightAware Approximate
08:57PM 30.9040 130.8800 327° Northwest 401 461 38,000  Level FlightAware
08:57PM 30.9690 130.8560 342° North 401 461 38,000  Level FlightAware
08:58PM 31.4849 130.7185 327° Northwest  Level FlightAware Approximate
08:58PM 31.0510 130.8250 342° North 399 459 38,000  Level FlightAware
08:59PM 31.1170 130.8010 343° North 399 459 38,000  Level FlightAware
08:59PM 31.1820 130.7760 342° North 398 458 38,000  Level FlightAware
09:00PM 31.2710 130.7430 342° North 398 458 38,000  Level FlightAware
09:01PM 31.3380 130.7180 342° North 398 458 38,000  Level FlightAware
09:02PM 31.4110 130.6910 342° North 398 458 38,000  Level FlightAware
09:02PM 31.4920 130.6610 342° North 398 458 38,000  Level FlightAware
09:03PM 31.5630 130.6340 342° North 399 459 38,000  Level FlightAware
09:04PM 31.6330 130.6070 342° North 399 459 38,000  Level FlightAware
09:04PM 31.7100 130.5790 343° North 399 459 38,000  Level FlightAware
09:05PM 31.7880 130.5480 341° North 399 459 38,000  Level FlightAware
09:06PM 31.8520 130.5230 342° North 399 459 38,000  Level FlightAware
09:07PM 31.9280 130.4930 341° North 399 459 38,000  Level FlightAware
09:07PM 31.9990 130.4660 342° North 399 459 38,000  Level FlightAware
09:08PM 32.0690 130.4390 342° North 400 460 38,000  Level FlightAware
09:09PM 32.1580 130.4030 341° North 400 460 38,000  Level FlightAware
09:09PM 32.2130 130.3820 342° North 400 460 38,000  Level FlightAware
09:10PM 32.2990 130.3490 342° North 402 463 38,000  Level FlightAware
09:11PM 32.3710 130.3210 342° North 402 463 38,000 -600 Level FlightAware
09:11PM 32.4510 130.2890 341° North 403 464 37,200 -1,020 Descending FlightAware
09:12PM 32.5220 130.2620 342° North 407 468 36,600 -1,020 Descending FlightAware
09:13PM 32.6050 130.2290 341° North 405 466 35,800 -1,740 Descending FlightAware
09:14PM 32.6790 130.2000 342° North 406 467 34,200 -3,060 Descending FlightAware
09:14PM 32.7610 130.1680 342° North 421 484 31,500 -3,360 Descending FlightAware
09:15PM 32.8320 130.1410 342° North 423 487 29,500 -2,940 Descending FlightAware
09:16PM 32.9060 130.1110 341° North 411 473 27,600 -2,880 Descending FlightAware
09:16PM 32.9870 130.0800 342° North 408 470 25,500 -2,880 Descending FlightAware
09:17PM 33.0620 130.0500 341° North 410 472 23,600 -2,880 Descending FlightAware
09:18PM 33.1450 130.0170 342° North 387 445 21,500 -2,760 Descending FlightAware
09:18PM 33.2140 129.9900 342° North 387 445 19,700 -2,700 Descending FlightAware
09:19PM 33.2910 129.9660 345° North 390 449 17,700 -2,640 Descending FlightAware
09:20PM 33.3620 129.9650 359° North 386 444 16,000 -1,680 Descending FlightAware
09:21PM 33.4540 129.9630 359° North 339 390 15,100 -1,080 Descending FlightAware
09:21PM 33.5130 129.9620 359° North 323 372 14,300 -1,500 Descending FlightAware
09:22PM 33.5790 129.9590 358° North 318 366 13,000 -1,740 Descending FlightAware
09:23PM 33.6370 129.9550 357° North 312 359 11,900 -1,560 Descending FlightAware
09:24PM 33.7000 129.9520 358° North 306 352 10,800 -1,680 Descending FlightAware
09:24PM 33.7390 129.9510 359° North 308 354 10,000 -1,500 Descending FlightAware
09:24PM 33.7600 129.9510 360° North 296 341 9,800 -960 Descending FlightAware
09:25PM 33.8000 129.9500 359° North 289 333 9,300 -1,200 Descending FlightAware
09:25PM 33.8510 129.9670 15° North 298 343 8,400 -1,440 Descending FlightAware
09:26PM 33.8670 129.9850 43° Northeast 298 343 8,000 -1,440 Descending FlightAware
09:26PM 33.8750 130.0040 63° Northeast 292 336 7,700 -1,380 Descending FlightAware
09:26PM 33.8870 130.0450 71° East 292 336 7,100 -1,200 Descending FlightAware
09:27PM 33.8990 130.1010 76° East 279 321 6,500 -960 Descending FlightAware
09:28PM 33.9000 130.1540 89° East 262 302 6,000 -840 Descending FlightAware
09:28PM 33.9000 130.1690 90° East 259 298 5,900 -1,080 Descending FlightAware
09:28PM 33.8880 130.2130 108° East 243 280 5,200 -1,200 Descending FlightAware
09:29PM 33.8750 130.2440 117° Southeast 236 272 4,700 -1,200 Descending FlightAware
09:29PM 33.8630 130.2580 136° Southeast 224 258 4,400 -840 Descending FlightAware
09:29PM 33.8400 130.2770 146° Southeast 193 222 4,100 -780 Descending FlightAware
09:30PM 33.8230 130.2890 150° Southeast 187 215 3,700 -840 Descending FlightAware
09:30PM 33.8120 130.2960 152° Southeast 194 223 3,300 -840 Descending FlightAware
09:31PM 33.7920 130.3100 150° Southeast 186 214 2,900 -840 Descending FlightAware
09:31PM 33.7750 130.3210 152° Southeast 173 199 2,700 -600 Descending FlightAware
09:32PM 33.7450 130.3420 150° Southeast 175 201 2,200 -480 Descending FlightAware
09:33PM 33.7130 130.3640 150° Southeast 167 192 2,000 -240 Descending FlightAware
09:33PM 33.7040 130.3700 151° Southeast 164 189 2,000  Level FlightAware
09:34PM 33.6830 130.3850 149° Southeast 165 190 2,000 -360 Level FlightAware
09:34PM 33.6600 130.4000 152° Southeast 145 167 1,600 -840 Descending FlightAware
09:35PM 33.6450 130.4110 149° Southeast 141 162 1,200 -840 Descending FlightAware
09:35PM 33.6300 130.4210 151° Southeast 130 150 900 -600 Descending FlightAware
09:35PM 33.6220 130.4260 153° Southeast 124 143 700 -480 Descending FlightAware